Hauptseite
METAR-TAF:

METAR-TAF

Flughäfen :

Flughafen Ostende-Brügge

Ostende, Belgien

Breite: 51-12N, Länge: 002-52E, Höhe: 4 m

Beobachtung

Neuester Wetterbericht von vor 31 Minuten, um 10:20 UTC
Wind 13 kt aus Ost/Nordost
Temperatur 5°C
Luftfeuchtigkeit 70%
Luftdruck 1028 hPa
Sichtweite 10 km oder mehr
keine Wolken unter 1500 m und keine Kumulonimbus oder Gewitterwolken

METAR: EBOS 181020Z 07013KT CAVOK 05/M00 Q1028 NOSIG

Zeit: 11:51 (10:51 UTC)

Prognose

Neuester Wetterbericht von vor 5 Stunden und 41 Minuten, um 05:10 UTC
Gültige Prognose vom 18 um 06 UTC bis 19 um 12 UTC
Wind 13 kt aus Ost
Sichtweite 10 km oder mehr
keine Wolken unter 1500 m und keine Kumulonimbus oder Gewitterwolken
Wahrscheinlichkeit 40% :
Zeitweise
vom 19 um 00 UTC bis 19 um 06 UTC
Durchbrochene Bewölkung in der Höhe von 700 ft

TAF: EBOS 180510Z 1806/1912 08013KT CAVOK PROB40 TEMPO 1900/1906 BKN007

Wetterbeobachtungen und Prognosen von mehr als 4000 Flughäfen (METAR und TAF Bericht).

Die verfügbaren Stationen werden durch gelbe und rote Markierungen auf der Karte dargestellt.

Führen Sie die Maus auf sie, um den Namen der Station zu sehen.

Darauf klicken, um die Beobachtung von Wetterbeobachtungen und Prognosen zu sehen.

Um die Karte zu ändern : klicken Sie auf den grünen Tasten mit einem schwarzen Kreuz Zum Vergrößern, auf den grünen Button mit einem Gedankenstrich zu verkleinern, oder auf die grünen Pfeile für benachbarte Karten.


METAR-TAF: